createdAt,value
2023-03-01T00:02:17.524Z,14.68
2023-03-01T00:07:18.999Z,14.75
2023-03-01T00:12:20.634Z,14.85
2023-03-01T00:17:22.123Z,16.92
2023-03-01T00:22:24.330Z,14.05
2023-03-01T00:27:25.713Z,12.73
2023-03-01T00:32:27.064Z,13.93
2023-03-01T00:37:28.610Z,13.55
2023-03-01T00:42:29.947Z,12.20
2023-03-01T00:47:31.323Z,13.43
2023-03-01T00:52:32.730Z,14.98
2023-03-01T00:57:34.359Z,16.88
2023-03-01T01:02:36.458Z,13.20
2023-03-01T01:07:38.114Z,14.68
2023-03-01T01:12:39.444Z,15.10
2023-03-01T01:17:41.766Z,15.65
2023-03-01T01:22:43.208Z,15.85
2023-03-01T01:27:44.709Z,16.25
2023-03-01T01:32:46.128Z,16.17
2023-03-01T01:37:47.440Z,18.42
2023-03-01T01:42:48.855Z,15.10
2023-03-01T01:47:51.870Z,14.35
2023-03-01T01:52:54.236Z,18.17
2023-03-01T01:58:00.550Z,18.08
2023-03-01T02:03:05.695Z,16.98
2023-03-01T02:08:09.154Z,20.25
2023-03-01T02:13:11.716Z,15.32
2023-03-01T02:18:17.768Z,13.32
2023-03-01T02:23:19.220Z,17.63
2023-03-01T02:28:26.984Z,14.98
2023-03-01T02:38:29.992Z,16.92
2023-03-01T02:43:33.809Z,20.20
2023-03-01T02:48:53.022Z,18.95
2023-03-01T02:54:24.032Z,19.15
2023-03-01T02:59:31.042Z,12.90
2023-03-01T03:04:32.840Z,11.83
2023-03-01T03:09:34.172Z,16.63
2023-03-01T03:14:35.906Z,16.52
2023-03-01T03:19:37.276Z,16.77
2023-03-01T03:24:38.865Z,16.73
2023-03-01T03:29:40.180Z,16.33
2023-03-01T03:34:41.531Z,18.40
2023-03-01T03:39:42.881Z,19.08
2023-03-01T03:44:44.207Z,27.48
2023-03-01T03:49:45.550Z,20.75
2023-03-01T03:54:46.944Z,18.58
2023-03-01T03:59:48.338Z,19.88
2023-03-01T04:04:52.969Z,15.65
2023-03-01T04:09:54.309Z,17.70
2023-03-01T04:14:55.633Z,20.10
2023-03-01T04:19:56.961Z,19.20
2023-03-01T04:24:59.156Z,21.23
2023-03-01T04:30:00.933Z,19.05
2023-03-01T04:35:02.411Z,20.95
2023-03-01T04:40:17.285Z,18.63
2023-03-01T04:45:19.054Z,21.05
2023-03-01T04:50:21.366Z,22.58
2023-03-01T04:55:22.710Z,16.52
2023-03-01T05:00:24.378Z,17.60
2023-03-01T05:05:37.406Z,21.50
2023-03-01T05:10:39.686Z,17.23
2023-03-01T05:15:41.117Z,16.70
2023-03-01T05:20:42.820Z,17.45
2023-03-01T05:25:44.154Z,18.73
2023-03-01T05:30:46.360Z,20.40
2023-03-01T05:35:49.538Z,19.75
2023-03-01T05:40:51.089Z,16.98
2023-03-01T05:45:52.480Z,21.15
2023-03-01T05:50:53.831Z,24.48
2023-03-01T05:55:55.192Z,20.65
2023-03-01T06:00:57.333Z,23.27
2023-03-01T06:05:59.438Z,20.92
2023-03-01T06:11:00.806Z,22.75
2023-03-01T06:16:04.955Z,18.88
2023-03-01T06:21:07.808Z,18.83
2023-03-01T06:26:09.765Z,19.83
2023-03-01T06:31:11.270Z,16.40
2023-03-01T06:36:12.745Z,19.35
2023-03-01T06:41:14.161Z,24.55
2023-03-01T06:46:15.537Z,19.35
2023-03-01T06:51:16.970Z,19.95
2023-03-01T06:56:18.352Z,20.17
2023-03-01T07:01:19.728Z,20.90
2023-03-01T07:06:22.123Z,18.00
2023-03-01T07:11:24.122Z,16.77
2023-03-01T07:16:25.524Z,20.35
2023-03-01T07:21:26.892Z,20.88
2023-03-01T07:26:28.551Z,15.93
2023-03-01T07:31:30.139Z,19.60
2023-03-01T07:36:31.805Z,21.20
2023-03-01T07:41:33.341Z,21.08
2023-03-01T07:46:34.690Z,26.45
2023-03-01T07:51:36.240Z,19.27
2023-03-01T07:56:37.572Z,18.83
2023-03-01T08:01:39.151Z,21.55
2023-03-01T08:06:40.603Z,20.65
2023-03-01T08:11:42.011Z,21.70
2023-03-01T08:16:43.707Z,18.63
2023-03-01T08:21:45.102Z,20.42
2023-03-01T08:26:46.641Z,20.80
2023-03-01T08:31:49.346Z,23.77
2023-03-01T08:36:52.633Z,27.55
2023-03-01T08:41:54.301Z,19.45
2023-03-01T08:46:56.606Z,22.35
2023-03-01T08:51:58.088Z,19.60
2023-03-01T08:57:02.857Z,19.88
2023-03-01T09:02:06.094Z,16.23
2023-03-01T09:07:08.223Z,18.80
2023-03-01T09:12:09.786Z,19.52
2023-03-01T09:17:11.310Z,19.15
2023-03-01T09:22:12.776Z,19.65
2023-03-01T09:27:15.514Z,17.05
2023-03-01T09:32:16.965Z,18.45
2023-03-01T09:37:18.439Z,19.25
2023-03-01T09:42:19.840Z,16.30
2023-03-01T09:47:28.704Z,17.90
2023-03-01T09:52:41.947Z,18.73
2023-03-01T09:57:54.077Z,18.88
2023-03-01T10:03:47.452Z,21.17
2023-03-01T10:08:57.309Z,16.55
2023-03-01T10:14:16.503Z,16.05
2023-03-01T10:19:42.240Z,17.13
2023-03-01T10:24:44.285Z,15.48
2023-03-01T10:30:18.019Z,18.98
2023-03-01T10:35:29.663Z,15.45
2023-03-01T10:40:32.515Z,19.30
2023-03-01T10:45:37.088Z,17.35
2023-03-01T10:50:42.258Z,18.30
2023-03-01T10:55:44.658Z,16.70
2023-03-01T11:00:57.726Z,16.13
2023-03-01T11:06:04.073Z,18.67
2023-03-01T11:11:19.318Z,15.20
2023-03-01T11:16:26.841Z,16.48
2023-03-01T11:26:37.310Z,18.02
2023-03-01T11:31:56.809Z,21.48
2023-03-01T11:37:10.034Z,15.50
2023-03-01T11:42:20.627Z,16.25
2023-03-01T11:47:43.044Z,15.82
2023-03-01T11:53:18.320Z,13.80
2023-03-01T11:58:46.618Z,14.90
2023-03-01T12:04:06.746Z,13.90
2023-03-01T12:09:13.819Z,12.45
2023-03-01T12:14:36.255Z,14.10
2023-03-01T12:19:51.852Z,12.00
2023-03-01T12:25:05.358Z,11.15
2023-03-01T12:30:37.584Z,11.07
2023-03-01T12:36:07.154Z,10.02
2023-03-01T12:42:04.959Z,10.30
2023-03-01T12:47:20.877Z,10.45
2023-03-01T12:52:27.546Z,11.50
2023-03-01T12:57:44.007Z,11.57
2023-03-01T13:03:03.935Z,15.52
2023-03-01T13:08:34.673Z,13.65
2023-03-01T13:13:36.050Z,9.45
2023-03-01T13:18:37.486Z,15.70
2023-03-01T13:23:40.743Z,11.90
2023-03-01T13:28:56.895Z,17.52
2023-03-01T13:34:08.140Z,10.45
2023-03-01T13:39:32.242Z,12.23
2023-03-01T13:44:37.406Z,9.88
2023-03-01T13:49:54.825Z,10.88
2023-03-01T13:54:57.742Z,9.50
2023-03-01T13:59:59.096Z,13.70
2023-03-01T14:05:01.333Z,10.27
2023-03-01T14:10:06.794Z,8.38
2023-03-01T14:15:41.957Z,10.30
2023-03-01T14:20:52.157Z,11.10
2023-03-01T14:25:56.587Z,13.43
2023-03-01T14:31:00.318Z,14.88
2023-03-01T14:36:07.826Z,11.65
2023-03-01T14:46:30.504Z,10.75
2023-03-01T14:51:37.750Z,10.43
2023-03-01T14:56:45.754Z,10.00
2023-03-01T15:01:48.393Z,12.32
2023-03-01T15:07:05.860Z,10.40
2023-03-01T15:12:45.963Z,8.88
2023-03-01T15:17:53.753Z,12.52
2023-03-01T15:22:56.390Z,9.32
2023-03-01T15:27:59.556Z,10.35
2023-03-01T15:33:29.894Z,10.18
2023-03-01T15:38:41.345Z,13.07
2023-03-01T15:43:47.601Z,9.85
2023-03-01T15:48:53.288Z,10.88
2023-03-01T15:53:54.970Z,8.52
2023-03-01T15:59:01.227Z,12.02
2023-03-01T16:04:02.614Z,10.52
2023-03-01T16:09:03.974Z,9.32
2023-03-01T16:14:05.352Z,14.25
2023-03-01T16:19:06.822Z,12.68
2023-03-01T16:24:08.631Z,9.50
2023-03-01T16:29:10.098Z,9.38
2023-03-01T16:34:11.698Z,9.25
2023-03-01T16:39:13.044Z,9.85
2023-03-01T16:44:15.881Z,16.38
2023-03-01T16:49:17.349Z,13.77
2023-03-01T16:54:19.057Z,9.07
2023-03-01T16:59:20.712Z,12.73
2023-03-01T17:04:22.291Z,12.40
2023-03-01T17:09:23.905Z,11.70
2023-03-01T17:14:25.295Z,7.95
2023-03-01T17:19:26.678Z,10.95
2023-03-01T17:24:28.254Z,13.38
2023-03-01T17:29:29.973Z,11.10
2023-03-01T17:34:33.001Z,12.93
2023-03-01T17:39:36.354Z,12.77
2023-03-01T17:44:38.924Z,13.20
2023-03-01T17:49:40.394Z,11.00
2023-03-01T17:54:41.815Z,13.32
2023-03-01T17:59:43.186Z,26.33
2023-03-01T18:04:44.517Z,16.30
2023-03-01T18:09:45.905Z,13.90
2023-03-01T18:14:53.286Z,12.88
2023-03-01T18:19:56.786Z,12.70
2023-03-01T18:24:58.184Z,15.00
2023-03-01T18:29:59.757Z,14.63
2023-03-01T18:35:01.410Z,17.45
2023-03-01T18:40:02.831Z,13.40
2023-03-01T18:45:04.537Z,14.15
2023-03-01T18:50:06.374Z,11.27
2023-03-01T18:55:08.081Z,11.52
2023-03-01T19:00:10.743Z,14.05
2023-03-01T19:05:12.134Z,11.85
2023-03-01T19:10:13.599Z,13.57
2023-03-01T19:15:16.271Z,12.13
2023-03-01T19:20:17.706Z,12.30
2023-03-01T19:25:19.068Z,12.60
2023-03-01T19:30:20.586Z,13.60
2023-03-01T19:35:23.370Z,13.82
2023-03-01T19:40:24.764Z,14.38
2023-03-01T19:45:33.324Z,12.43
2023-03-01T19:50:35.158Z,13.00
2023-03-01T19:55:37.585Z,13.35
2023-03-01T20:00:40.540Z,13.40
2023-03-01T20:05:43.627Z,16.00
2023-03-01T20:10:45.190Z,14.85
2023-03-01T20:15:46.868Z,15.98
2023-03-01T20:20:50.094Z,18.20
2023-03-01T20:25:51.797Z,15.95
2023-03-01T20:30:53.169Z,14.18
2023-03-01T20:35:55.163Z,13.00
2023-03-01T20:41:00.938Z,16.23
2023-03-01T20:46:06.821Z,12.20
2023-03-01T20:51:09.456Z,15.35
2023-03-01T20:56:13.532Z,15.20
2023-03-01T21:01:18.586Z,18.30
2023-03-01T21:06:20.049Z,15.98
2023-03-01T21:11:25.128Z,12.50
2023-03-01T21:16:26.619Z,15.20
2023-03-01T21:21:28.347Z,13.75
2023-03-01T21:26:30.122Z,15.07
2023-03-01T21:31:35.024Z,15.32
2023-03-01T21:36:36.922Z,12.43
2023-03-01T21:41:38.522Z,16.27
2023-03-01T21:46:39.889Z,16.50
2023-03-01T21:51:41.271Z,12.82
2023-03-01T21:56:44.464Z,14.00
2023-03-01T22:01:46.556Z,13.60
2023-03-01T22:06:47.900Z,15.27
2023-03-01T22:11:52.726Z,12.93
2023-03-01T22:16:54.831Z,14.52
2023-03-01T22:21:56.187Z,14.18
2023-03-01T22:26:57.642Z,13.57
2023-03-01T22:31:59.199Z,12.02
2023-03-01T22:37:00.648Z,14.00
2023-03-01T22:42:02.026Z,23.08
2023-03-01T22:47:03.427Z,15.32
2023-03-01T22:52:05.065Z,14.27
2023-03-01T22:57:06.434Z,13.35
2023-03-01T23:02:07.832Z,14.07
2023-03-01T23:07:09.627Z,13.02
2023-03-01T23:12:10.966Z,16.75
2023-03-01T23:17:12.880Z,16.00
2023-03-01T23:22:14.287Z,15.05
2023-03-01T23:27:18.758Z,15.82
2023-03-01T23:32:20.164Z,13.82
2023-03-01T23:37:21.584Z,16.42
2023-03-01T23:42:22.951Z,16.20
2023-03-01T23:47:24.278Z,16.38
2023-03-01T23:52:25.589Z,13.93
2023-03-01T23:57:28.543Z,17.63
